Time;durP1;ratioP1;P1;durP2;ratioP2;P2;SDS_P1;SDS_P2;PMS_P1;PMS_P2;Temp;Humidity;BMP_temperature;BMP_pressure;BME280_temperature;BME280_humidity;BME280_pressure;Samples;Min_cycle;Max_cycle;Signal;HPM_P1;HPM_P2
2022/09/09 00:01:45;;;;;;;8.93;4.32;;;26.00;99.90;;;;;;5033431;28;20113;-70
2022/09/09 00:04:35;;;;;;;14.00;4.43;;;26.00;99.90;;;;;;5032074;28;20128;-70
2022/09/09 00:07:10;;;;;;;8.93;3.92;;;26.00;99.90;;;;;;5033625;28;20026;-70
2022/09/09 00:09:50;;;;;;;11.32;4.85;;;25.90;99.90;;;;;;5032226;28;20319;-70
2022/09/09 00:12:29;;;;;;;9.82;3.72;;;25.90;99.90;;;;;;5032269;28;20120;-70
2022/09/09 00:15:02;;;;;;;8.82;4.30;;;25.90;99.90;;;;;;5033642;28;20045;-71
2022/09/09 00:17:34;;;;;;;10.73;4.38;;;25.90;99.90;;;;;;5033189;28;20124;-70
2022/09/09 00:20:12;;;;;;;10.45;4.40;;;25.80;99.90;;;;;;5033341;28;20046;-70
2022/09/09 00:22:42;;;;;;;14.60;4.30;;;25.90;99.90;;;;;;5033468;28;20584;-70
2022/09/09 00:25:16;;;;;;;10.55;4.32;;;25.80;99.90;;;;;;5033121;28;20034;-71
2022/09/09 00:27:48;;;;;;;10.43;4.28;;;25.80;99.90;;;;;;5033365;28;20043;-70
2022/09/09 00:30:34;;;;;;;10.00;4.47;;;25.80;99.90;;;;;;5031120;28;20045;-70
2022/09/09 00:33:11;;;;;;;11.15;4.10;;;25.80;99.90;;;;;;5033076;28;20037;-70
2022/09/09 00:35:44;;;;;;;11.40;4.63;;;25.80;99.90;;;;;;5032816;28;20048;-71
2022/09/09 00:38:25;;;;;;;13.85;4.20;;;25.90;99.90;;;;;;5033020;28;20036;-70
2022/09/09 00:41:38;;;;;;;9.80;4.20;;;25.90;99.90;;;;;;5033084;28;20044;-70
2022/09/09 00:44:34;;;;;;;9.13;3.90;;;25.80;99.90;;;;;;5011054;28;20029;-70
2022/09/09 00:47:06;;;;;;;10.18;3.90;;;25.90;99.90;;;;;;5005833;28;20045;-70
2022/09/09 00:49:55;;;;;;;9.13;3.95;;;25.90;99.90;;;;;;5010705;28;20129;-71
2022/09/09 00:52:43;;;;;;;15.57;4.18;;;25.90;99.90;;;;;;5000368;28;20026;-70
2022/09/09 00:55:45;;;;;;;10.23;3.80;;;25.80;99.90;;;;;;5010890;28;20041;-70
2022/09/09 00:58:12;;;;;;;11.30;3.83;;;25.90;99.90;;;;;;5010425;28;20034;-70
2022/09/09 01:00:50;;;;;;;12.85;4.15;;;25.90;99.90;;;;;;4993711;28;20446;-70
2022/09/09 01:03:24;;;;;;;11.43;3.95;;;25.90;99.90;;;;;;4994617;28;20062;-71
2022/09/09 01:06:14;;;;;;;12.00;4.20;;;25.80;99.90;;;;;;5011001;28;20045;-71
2022/09/09 01:08:58;;;;;;;11.98;3.92;;;25.80;99.90;;;;;;5010677;28;20034;-71
2022/09/09 01:11:34;;;;;;;14.43;4.13;;;25.70;99.90;;;;;;5010581;28;20034;-70
2022/09/09 01:14:25;;;;;;;10.40;4.55;;;25.60;99.90;;;;;;5015437;28;20041;-71
2022/09/09 01:16:56;;;;;;;10.50;4.20;;;25.60;99.90;;;;;;5032366;28;20021;-70
2022/09/09 01:19:43;;;;;;;11.32;4.20;;;25.50;99.90;;;;;;5031935;28;20048;-70
2022/09/09 01:22:21;;;;;;;11.32;4.00;;;25.50;99.90;;;;;;5032156;28;20028;-70
2022/09/09 01:25:13;;;;;;;14.27;4.75;;;25.50;99.90;;;;;;5032131;28;20026;-70
2022/09/09 01:27:41;;;;;;;8.30;3.88;;;25.50;99.90;;;;;;5032182;28;20025;-70
2022/09/09 01:30:17;;;;;;;10.90;4.28;;;25.40;99.90;;;;;;5031740;28;20045;-70
2022/09/09 01:32:46;;;;;;;11.18;4.53;;;25.40;99.90;;;;;;5031928;28;20151;-71
2022/09/09 01:35:24;;;;;;;14.52;4.30;;;25.30;99.90;;;;;;5031963;28;20052;-71
2022/09/09 01:37:51;;;;;;;9.80;4.30;;;25.30;99.90;;;;;;5032159;28;20066;-71
2022/09/09 01:40:17;;;;;;;11.20;4.20;;;25.30;99.90;;;;;;5032002;28;20251;-71
2022/09/09 01:42:43;;;;;;;13.52;4.30;;;25.30;99.90;;;;;;5030249;28;20022;-71
2022/09/09 01:45:10;;;;;;;8.95;3.90;;;25.30;99.90;;;;;;5032077;28;20033;-71
2022/09/09 01:47:36;;;;;;;11.00;4.35;;;25.20;99.90;;;;;;5030596;28;20064;-71
2022/09/09 01:50:03;;;;;;;12.07;4.50;;;25.30;99.90;;;;;;5030054;28;20052;-71
2022/09/09 01:52:31;;;;;;;9.38;4.32;;;25.20;99.90;;;;;;5031628;28;20101;-72
2022/09/09 01:54:57;;;;;;;10.43;3.83;;;25.30;99.90;;;;;;5031416;28;20029;-71
2022/09/09 01:57:40;;;;;;;12.27;4.20;;;25.30;99.90;;;;;;5031448;28;20381;-70
2022/09/09 02:00:09;;;;;;;10.07;4.20;;;25.30;99.90;;;;;;5031544;28;20037;-70
2022/09/09 02:02:44;;;;;;;10.35;4.38;;;25.20;99.90;;;;;;5031260;28;20265;-70
2022/09/09 02:05:26;;;;;;;10.57;4.35;;;25.20;99.90;;;;;;5029744;28;20051;-71
2022/09/09 02:08:10;;;;;;;14.07;4.30;;;25.30;99.90;;;;;;5031334;28;20064;-70
2022/09/09 02:11:06;;;;;;;10.57;4.68;;;25.30;99.90;;;;;;5031172;28;20029;-71
2022/09/09 02:13:35;;;;;;;8.95;4.35;;;25.30;99.90;;;;;;5029065;28;20083;-70
2022/09/09 02:16:07;;;;;;;10.43;4.28;;;25.30;99.90;;;;;;5030847;28;20029;-71
2022/09/09 02:18:42;;;;;;;11.10;4.30;;;25.40;99.90;;;;;;5031270;28;20123;-72
2022/09/09 02:21:11;;;;;;;10.65;4.40;;;25.40;99.90;;;;;;5031261;28;20065;-71
2022/09/09 02:23:41;;;;;;;9.00;4.00;;;25.40;99.90;;;;;;5031137;28;20025;-71
2022/09/09 02:26:10;;;;;;;12.05;4.43;;;25.40;99.90;;;;;;5031239;28;20036;-71
2022/09/09 02:28:38;;;;;;;13.32;4.45;;;25.40;99.90;;;;;;5031138;28;20025;-71
2022/09/09 02:31:06;;;;;;;12.73;4.18;;;25.40;99.90;;;;;;5030583;28;20083;-71
2022/09/09 02:33:41;;;;;;;10.98;4.30;;;25.40;99.90;;;;;;5031004;28;20093;-71
2022/09/09 02:36:10;;;;;;;8.80;4.60;;;25.50;99.90;;;;;;5030856;28;20033;-71
2022/09/09 02:38:41;;;;;;;13.20;4.15;;;25.40;99.90;;;;;;5030710;28;20033;-71
2022/09/09 02:41:07;;;;;;;12.80;4.60;;;25.30;99.90;;;;;;5030859;28;20136;-71
2022/09/09 02:43:34;;;;;;;10.18;4.53;;;25.30;99.90;;;;;;5029475;28;20160;-71
2022/09/09 02:46:36;;;;;;;9.02;4.32;;;25.30;99.90;;;;;;5030513;28;20124;-71
2022/09/09 02:49:09;;;;;;;10.38;4.78;;;25.20;99.90;;;;;;5023699;28;20397;-71
2022/09/09 02:51:49;;;;;;;10.93;4.18;;;25.20;99.90;;;;;;5030542;28;20450;-71
2022/09/09 02:54:32;;;;;;;8.98;4.07;;;25.20;99.90;;;;;;5031188;28;20488;-71
2022/09/09 02:57:16;;;;;;;11.10;4.22;;;25.20;99.90;;;;;;5031218;28;20367;-71
2022/09/09 02:59:44;;;;;;;15.00;4.78;;;25.30;99.90;;;;;;5030821;28;20034;-71
2022/09/09 03:02:11;;;;;;;10.70;4.63;;;25.30;99.90;;;;;;5030944;28;20433;-71
2022/09/09 03:04:38;;;;;;;10.82;4.85;;;25.20;99.90;;;;;;5031243;28;20037;-71
2022/09/09 03:07:04;;;;;;;12.50;4.78;;;25.20;99.90;;;;;;5030980;28;20022;-71
2022/09/09 03:09:31;;;;;;;12.48;4.93;;;25.20;99.90;;;;;;5030956;28;20026;-71
2022/09/09 03:11:57;;;;;;;10.20;4.40;;;25.20;99.90;;;;;;5030921;28;20041;-71
2022/09/09 03:14:27;;;;;;;10.45;4.55;;;25.20;99.90;;;;;;5031353;28;20032;-71
2022/09/09 03:16:54;;;;;;;11.75;5.07;;;25.20;99.90;;;;;;5031026;28;20573;-71
2022/09/09 03:19:20;;;;;;;16.23;4.90;;;25.20;99.90;;;;;;5031395;28;20025;-71
2022/09/09 03:21:47;;;;;;;12.18;4.68;;;25.10;99.90;;;;;;5031498;28;20033;-71
2022/09/09 03:24:13;;;;;;;;;;;25.10;99.90;;;;;;5031766;28;20022;-72
2022/09/09 03:26:40;;;;;;;11.98;4.50;;;25.10;99.90;;;;;;5031733;28;19951;-71
2022/09/09 03:29:07;;;;;;;8.98;4.30;;;25.10;99.90;;;;;;5031103;28;20033;-71
2022/09/09 03:31:36;;;;;;;18.58;5.10;;;25.20;99.90;;;;;;5031508;28;20036;-71
2022/09/09 03:34:02;;;;;;;9.48;4.35;;;25.20;99.90;;;;;;5031241;28;20022;-71
2022/09/09 03:36:29;;;;;;;11.38;4.70;;;25.20;99.90;;;;;;5031498;28;20053;-71
2022/09/09 03:38:55;;;;;;;;;;;25.30;99.90;;;;;;5031712;28;20137;-71
2022/09/09 03:41:23;;;;;;;10.68;4.38;;;25.30;99.90;;;;;;5031303;28;20364;-71
2022/09/09 03:43:53;;;;;;;8.30;4.35;;;25.30;99.90;;;;;;5031237;28;20420;-71
2022/09/09 03:46:21;;;;;;;12.43;4.55;;;25.40;99.90;;;;;;5033056;28;20036;-71
2022/09/09 03:48:47;;;;;;;11.13;4.93;;;25.40;99.90;;;;;;5034808;28;20121;-71
2022/09/09 03:51:14;;;;;;;12.77;4.88;;;25.40;99.90;;;;;;5034289;28;20103;-71
2022/09/09 03:53:40;;;;;;;9.80;4.85;;;25.30;99.90;;;;;;5034301;28;20108;-71
2022/09/09 03:56:07;;;;;;;7.82;4.53;;;25.30;99.90;;;;;;5034835;28;20088;-71
2022/09/09 03:58:37;;;;;;;9.48;4.43;;;25.30;99.90;;;;;;5034651;28;20432;-71
2022/09/09 04:01:09;;;;;;;15.60;4.90;;;25.20;99.90;;;;;;5034789;28;20034;-71
2022/09/09 04:03:35;;;;;;;12.48;4.93;;;25.30;99.90;;;;;;5034984;28;20097;-70
2022/09/09 04:06:04;;;;;;;10.38;5.25;;;25.30;99.90;;;;;;5034392;28;20033;-70
2022/09/09 04:08:33;;;;;;;17.08;5.20;;;25.30;99.90;;;;;;5034285;28;20083;-71
2022/09/09 04:11:02;;;;;;;11.40;5.00;;;25.30;99.90;;;;;;5034407;28;20082;-70
2022/09/09 04:13:28;;;;;;;11.25;4.78;;;25.40;99.90;;;;;;5034082;28;20021;-70
2022/09/09 04:15:55;;;;;;;;;;;25.30;99.90;;;;;;5034503;28;20027;-70
2022/09/09 04:18:22;;;;;;;10.85;4.68;;;25.30;99.90;;;;;;5034504;28;19966;-71
2022/09/09 04:20:49;;;;;;;14.90;5.45;;;25.30;99.90;;;;;;5034906;28;20029;-71
2022/09/09 04:23:18;;;;;;;10.13;4.80;;;25.30;99.90;;;;;;5035340;28;20026;-71
2022/09/09 04:26:03;;;;;;;10.07;4.95;;;25.30;99.90;;;;;;5035637;28;20049;-71
2022/09/09 04:28:32;;;;;;;12.68;4.60;;;25.30;99.90;;;;;;5035379;28;20118;-71
2022/09/09 04:31:08;;;;;;;13.68;5.35;;;25.30;99.90;;;;;;5034585;28;20068;-71
2022/09/09 04:33:35;;;;;;;12.57;5.28;;;25.30;99.90;;;;;;5035254;28;20370;-71
2022/09/09 04:36:01;;;;;;;12.20;4.97;;;25.30;99.90;;;;;;5034760;28;20025;-71
2022/09/09 04:38:27;;;;;;;12.48;5.50;;;25.30;99.90;;;;;;5034350;28;20030;-71
2022/09/09 04:40:54;;;;;;;12.85;4.65;;;25.30;99.90;;;;;;5035189;28;20065;-71
2022/09/09 04:43:22;;;;;;;14.63;5.20;;;25.30;99.90;;;;;;5035704;28;20022;-71
2022/09/09 04:45:49;;;;;;;13.40;5.32;;;25.40;99.90;;;;;;5033730;28;20087;-71
2022/09/09 04:48:15;;;;;;;13.70;5.05;;;25.30;99.90;;;;;;5034593;28;20555;-72
2022/09/09 04:50:41;;;;;;;13.35;5.00;;;25.30;99.90;;;;;;5034804;28;20029;-71
2022/09/09 04:53:07;;;;;;;11.38;4.75;;;25.40;99.90;;;;;;5035460;28;20079;-71
2022/09/09 04:55:37;;;;;;;11.88;4.95;;;25.40;99.90;;;;;;5034760;28;20125;-71
2022/09/09 04:58:07;;;;;;;14.55;4.70;;;25.50;99.90;;;;;;5034213;28;20029;-71
2022/09/09 05:00:37;;;;;;;12.32;4.78;;;25.50;99.90;;;;;;5035218;28;20039;-71
2022/09/09 05:03:05;;;;;;;14.90;4.88;;;25.50;99.90;;;;;;5034797;28;20025;-71
2022/09/09 05:05:35;;;;;;;10.68;4.68;;;25.60;99.90;;;;;;5034726;28;20029;-71
2022/09/09 05:08:03;;;;;;;12.00;4.70;;;25.70;99.90;;;;;;5035012;28;20083;-71
2022/09/09 05:10:29;;;;;;;14.65;5.07;;;25.80;99.90;;;;;;5034478;28;20104;-71
2022/09/09 05:12:56;;;;;;;12.52;4.35;;;25.90;99.90;;;;;;5035045;28;20444;-71
2022/09/09 05:15:22;;;;;;;15.43;4.60;;;25.90;99.90;;;;;;5034680;28;20029;-71
2022/09/09 05:17:48;;;;;;;11.15;4.72;;;26.10;99.90;;;;;;5034225;28;20053;-71
2022/09/09 05:20:15;;;;;;;14.18;4.50;;;26.20;99.90;;;;;;5034080;28;20029;-71
2022/09/09 05:22:40;;;;;;;;;;;26.30;99.90;;;;;;5034512;28;20064;-71
2022/09/09 05:25:07;;;;;;;;;;;26.40;99.90;;;;;;5034605;28;19920;-71
2022/09/09 05:27:37;;;;;;;13.40;4.32;;;26.60;99.90;;;;;;5033744;28;19924;-71
2022/09/09 05:30:04;;;;;;;11.50;4.68;;;26.90;99.90;;;;;;5033397;28;20057;-71
2022/09/09 05:32:34;;;;;;;19.27;4.72;;;27.20;99.90;;;;;;5033378;28;20025;-72
2022/09/09 05:35:01;;;;;;;28.58;5.20;;;27.60;99.90;;;;;;5033602;28;20095;-71
2022/09/09 05:37:27;;;;;;;13.73;4.15;;;27.80;99.90;;;;;;5034113;28;20025;-71
2022/09/09 05:39:53;;;;;;;11.80;3.63;;;28.10;99.90;;;;;;5032198;28;20033;-71
2022/09/09 05:42:19;;;;;;;13.48;3.80;;;28.30;99.90;;;;;;5033937;28;20020;-71
2022/09/09 05:44:45;;;;;;;11.55;3.40;;;28.60;99.90;;;;;;5032093;28;20491;-71
2022/09/09 05:47:11;;;;;;;12.48;3.72;;;29.10;99.90;;;;;;5033139;28;20017;-71
2022/09/09 05:49:37;;;;;;;10.00;3.38;;;29.40;99.90;;;;;;5033622;28;20022;-71
2022/09/09 05:52:03;;;;;;;15.23;3.58;;;29.90;99.90;;;;;;5032692;28;20021;-71
2022/09/09 05:54:30;;;;;;;;;;;30.30;99.90;;;;;;5033253;28;20068;-71
2022/09/09 05:56:56;;;;;;;21.05;3.63;;;30.80;99.90;;;;;;5031151;28;19928;-71
2022/09/09 05:59:23;;;;;;;10.13;3.55;;;31.10;99.90;;;;;;5032658;28;20021;-71
2022/09/09 06:01:49;;;;;;;11.77;3.40;;;31.50;99.90;;;;;;5032571;28;20022;-71
2022/09/09 06:04:15;;;;;;;;;;;31.10;99.90;;;;;;5033180;28;20021;-72
2022/09/09 06:06:42;;;;;;;9.35;2.95;;;31.00;99.90;;;;;;5032761;28;19950;-71
2022/09/09 06:09:10;;;;;;;10.45;3.05;;;30.70;99.90;;;;;;5031699;28;20021;-71
2022/09/09 06:11:38;;;;;;;8.77;3.05;;;30.30;99.90;;;;;;5032166;28;20033;-71
2022/09/09 06:14:04;;;;;;;14.07;3.45;;;30.10;99.90;;;;;;5032145;28;20151;-71
2022/09/09 06:16:34;;;;;;;11.88;3.92;;;30.00;99.90;;;;;;5032474;28;20033;-71
2022/09/09 06:19:03;;;;;;;10.35;3.47;;;30.00;99.90;;;;;;5032316;28;20036;-71
2022/09/09 06:21:35;;;;;;;11.13;3.20;;;30.40;99.90;;;;;;5030857;28;20041;-71
2022/09/09 06:24:02;;;;;;;10.82;3.33;;;30.70;99.90;;;;;;5032303;28;20075;-71
2022/09/09 06:26:31;;;;;;;9.77;3.28;;;31.20;99.90;;;;;;5032325;28;20021;-71
2022/09/09 06:28:58;;;;;;;9.10;3.58;;;31.90;99.90;;;;;;5032349;28;20382;-71
2022/09/09 06:31:28;;;;;;;14.63;3.45;;;32.70;99.90;;;;;;5031910;28;20056;-71
2022/09/09 06:33:54;;;;;;;14.70;3.78;;;32.90;99.90;;;;;;5030691;28;20124;-73
2022/09/09 06:36:35;;;;;;;13.65;2.80;;;33.00;99.90;;;;;;5032325;28;20382;-69
2022/09/09 06:39:01;;;;;;;9.13;3.33;;;33.40;99.90;;;;;;5032174;28;20061;-71
2022/09/09 06:41:29;;;;;;;14.10;3.10;;;33.70;99.90;;;;;;5032332;28;20108;-71
2022/09/09 06:43:55;;;;;;;9.35;3.00;;;33.60;99.90;;;;;;5032219;28;20126;-72
2022/09/09 06:46:27;;;;;;;10.48;3.10;;;33.40;99.90;;;;;;5032166;28;20025;-72
2022/09/09 06:48:59;;;;;;;10.00;3.05;;;33.30;99.90;;;;;;5032012;28;20028;-72
2022/09/09 06:51:28;;;;;;;10.13;2.85;;;32.80;99.90;;;;;;5031818;28;20104;-72
2022/09/09 06:53:57;;;;;;;11.85;2.92;;;33.10;99.90;;;;;;5032024;28;20091;-72
2022/09/09 06:56:32;;;;;;;11.43;2.67;;;33.80;99.90;;;;;;5031954;28;20095;-71
2022/09/09 06:59:03;;;;;;;8.82;2.75;;;34.20;99.90;;;;;;5031693;28;20363;-71
2022/09/09 07:01:39;;;;;;;9.43;2.45;;;34.30;99.90;;;;;;5031599;28;20178;-70
2022/09/09 07:04:07;;;;;;;11.30;2.70;;;34.40;99.90;;;;;;5031950;28;20024;-70
2022/09/09 07:06:40;;;;;;;9.38;2.75;;;33.80;99.90;;;;;;5030252;28;20080;-70
2022/09/09 07:09:09;;;;;;;11.93;3.05;;;33.50;99.90;;;;;;5030506;28;20395;-70
2022/09/09 07:11:46;;;;;;;6.82;2.90;;;33.40;99.90;;;;;;5031526;28;20394;-70
2022/09/09 07:14:13;;;;;;;12.52;3.60;;;33.50;99.90;;;;;;5032014;28;20466;-70
2022/09/09 07:16:42;;;;;;;10.10;2.80;;;33.50;99.90;;;;;;5031724;28;20494;-71
2022/09/09 07:19:10;;;;;;;14.57;3.33;;;33.20;99.90;;;;;;5031865;28;20108;-70
2022/09/09 07:22:13;;;;;;;11.30;2.72;;;32.80;99.90;;;;;;5034061;28;20041;-70
2022/09/09 07:24:39;;;;;;;14.93;3.67;;;33.10;99.90;;;;;;5035467;28;20021;-71
2022/09/09 07:27:05;;;;;;;;;;;32.70;99.90;;;;;;5036081;28;20131;-71
2022/09/09 07:29:31;;;;;;;9.80;3.28;;;32.60;99.90;;;;;;5033770;28;19968;-71
2022/09/09 07:31:58;;;;;;;;;;;32.30;99.90;;;;;;5035730;28;20035;-71
2022/09/09 07:34:24;;;;;;;11.45;3.60;;;31.90;99.90;;;;;;5035659;28;19954;-71
2022/09/09 07:36:50;;;;;;;9.18;3.03;;;32.00;99.90;;;;;;5035519;28;20072;-71
2022/09/09 07:39:17;;;;;;;;;;;31.70;99.90;;;;;;5034283;28;20025;-72
2022/09/09 07:41:45;;;;;;;14.00;3.45;;;31.70;99.90;;;;;;5035091;28;19912;-71
2022/09/09 07:44:17;;;;;;;11.02;3.40;;;31.90;99.90;;;;;;5034985;28;20027;-71
2022/09/09 07:46:45;;;;;;;18.25;3.60;;;32.00;99.90;;;;;;5035201;28;20025;-70
2022/09/09 07:49:11;;;;;;;11.63;3.70;;;32.10;99.90;;;;;;5034807;28;20032;-71
2022/09/09 07:51:38;;;;;;;;;;;32.50;99.90;;;;;;5033812;28;20099;-70
2022/09/09 07:54:09;;;;;;;10.40;3.03;;;32.40;99.90;;;;;;5033468;28;20007;-70
2022/09/09 07:56:36;;;;;;;11.02;3.28;;;32.10;99.90;;;;;;5034844;28;20040;-71
2022/09/09 07:59:06;;;;;;;11.23;3.80;;;31.80;99.90;;;;;;5034635;28;20017;-72
2022/09/09 08:01:39;;;;;;;11.63;3.40;;;31.80;99.90;;;;;;5034204;28;20390;-71
2022/09/09 08:04:07;;;;;;;13.18;3.97;;;31.90;99.90;;;;;;5034777;28;20045;-71
2022/09/09 08:06:37;;;;;;;14.63;3.97;;;31.80;99.90;;;;;;5035200;28;20034;-72
2022/09/09 08:09:06;;;;;;;15.30;3.30;;;31.80;99.90;;;;;;5033387;28;20116;-71
2022/09/09 08:11:33;;;;;;;9.90;2.97;;;32.00;99.90;;;;;;5034317;28;20037;-72
2022/09/09 08:13:59;;;;;;;10.27;3.22;;;32.20;99.90;;;;;;5034584;28;20374;-72
2022/09/09 08:16:29;;;;;;;12.05;2.95;;;32.10;99.90;;;;;;5034406;28;20108;-71
2022/09/09 08:18:56;;;;;;;13.40;3.08;;;32.00;99.90;;;;;;5034660;28;20440;-72
2022/09/09 08:21:24;;;;;;;10.10;3.35;;;32.10;99.90;;;;;;5034559;28;20034;-71
2022/09/09 08:23:53;;;;;;;16.85;3.15;;;32.10;99.90;;;;;;5034620;28;20032;-71
2022/09/09 08:26:26;;;;;;;11.18;3.42;;;32.20;99.90;;;;;;5033655;28;20377;-71
2022/09/09 08:28:55;;;;;;;13.05;3.40;;;32.70;99.90;;;;;;5034000;28;20025;-71
2022/09/09 08:31:34;;;;;;;11.23;3.10;;;33.00;99.90;;;;;;5034128;28;20057;-71
2022/09/09 08:34:02;;;;;;;11.07;3.25;;;33.40;99.90;;;;;;5033838;28;20055;-71
2022/09/09 08:36:30;;;;;;;11.07;2.80;;;33.70;99.90;;;;;;5034635;28;20109;-71
2022/09/09 08:38:57;;;;;;;11.77;3.17;;;33.60;99.90;;;;;;5034222;28;20136;-71
2022/09/09 08:41:50;;;;;;;12.07;3.20;;;33.50;99.90;;;;;;5034483;28;20037;-71
2022/09/09 08:44:34;;;;;;;13.18;3.40;;;33.60;99.90;;;;;;5034455;28;20104;-71
2022/09/09 08:47:26;;;;;;;15.70;3.53;;;33.60;99.90;;;;;;5034392;28;20041;-71
2022/09/09 08:49:52;;;;;;;10.63;3.00;;;33.40;99.90;;;;;;5034220;28;20260;-71
2022/09/09 08:52:41;;;;;;;;;;;33.30;99.90;;;;;;5034842;28;20044;-71
2022/09/09 08:55:16;;;;;;;13.30;3.30;;;33.20;99.90;;;;;;5034171;28;19956;-71
2022/09/09 08:57:44;;;;;;;8.80;3.15;;;33.50;99.90;;;;;;5033717;28;20063;-71
2022/09/09 09:00:11;;;;;;;11.35;3.25;;;33.60;99.90;;;;;;5034247;28;20028;-71
2022/09/09 09:03:14;;;;;;;12.65;3.22;;;33.50;99.90;;;;;;5033970;28;20037;-72
2022/09/09 09:05:56;;;;;;;16.63;3.38;;;33.60;99.90;;;;;;5032582;28;20029;-71
2022/09/09 09:08:38;;;;;;;14.48;3.47;;;33.80;99.90;;;;;;5033624;28;20033;-71
2022/09/09 09:11:05;;;;;;;13.15;3.60;;;33.70;99.90;;;;;;5034080;28;20377;-71
2022/09/09 09:14:25;;;;;;;12.68;3.13;;;33.90;99.90;;;;;;5033498;28;20025;-71
2022/09/09 09:17:12;;;;;;;11.23;3.00;;;33.90;99.90;;;;;;5011790;28;20042;-71
2022/09/09 09:19:40;;;;;;;12.95;3.40;;;34.00;99.90;;;;;;5011634;28;20478;-71
2022/09/09 09:22:25;;;;;;;11.70;2.92;;;33.70;99.90;;;;;;5011466;28;20026;-71
2022/09/09 09:25:14;;;;;;;8.75;2.47;;;33.40;99.90;;;;;;5011120;28;20033;-71
2022/09/09 09:28:08;;;;;;;9.30;3.22;;;33.40;99.90;;;;;;4995579;28;20036;-71
2022/09/09 09:30:45;;;;;;;10.10;3.10;;;33.00;99.90;;;;;;5011225;28;20071;-72
2022/09/09 09:33:20;;;;;;;15.18;3.00;;;33.20;99.90;;;;;;5011740;28;20501;-71
2022/09/09 09:35:46;;;;;;;14.43;2.70;;;33.30;99.90;;;;;;5011494;28;20465;-71
2022/09/09 09:38:19;;;;;;;;;;;33.40;99.90;;;;;;4995472;28;20445;-72
2022/09/09 09:41:00;;;;;;;15.30;3.33;;;33.60;99.90;;;;;;5011112;28;19917;-71
2022/09/09 09:43:36;;;;;;;13.85;3.70;;;33.70;99.90;;;;;;5011357;28;20033;-71
2022/09/09 09:46:05;;;;;;;12.02;3.65;;;33.30;99.90;;;;;;5011371;28;20046;-71
2022/09/09 09:48:32;;;;;;;11.68;3.22;;;32.90;99.90;;;;;;5010986;28;20109;-71
2022/09/09 09:51:02;;;;;;;16.48;3.63;;;32.70;99.90;;;;;;5011184;28;20513;-71
2022/09/09 09:53:31;;;;;;;14.90;3.05;;;32.70;99.90;;;;;;5013609;28;20485;-71
2022/09/09 09:56:06;;;;;;;14.80;3.63;;;32.70;99.90;;;;;;5013119;28;20026;-71
2022/09/09 09:58:45;;;;;;;11.63;3.60;;;32.60;99.90;;;;;;5012978;28;20030;-71
2022/09/09 10:01:31;;;;;;;13.10;3.58;;;32.70;99.90;;;;;;5013403;28;20037;-71
2022/09/09 10:04:23;;;;;;;10.32;2.78;;;33.00;99.90;;;;;;5012781;28;20156;-71
2022/09/09 10:06:49;;;;;;;12.55;3.28;;;33.10;99.90;;;;;;5013371;28;20026;-71
2022/09/09 10:09:32;;;;;;;11.85;2.92;;;33.20;99.90;;;;;;5012919;28;20447;-71
2022/09/09 10:12:36;;;;;;;13.52;3.40;;;33.00;99.90;;;;;;5013060;28;20485;-71
2022/09/09 10:18:31;;;;;;;15.15;2.85;;;33.20;99.90;;;;;;5013262;28;20041;-71
2022/09/09 10:21:20;;;;;;;14.45;2.65;;;33.40;99.90;;;;;;5013073;28;20049;-71
2022/09/09 10:24:28;;;;;;;10.32;2.80;;;33.50;99.90;;;;;;5012634;28;20100;-72
2022/09/09 10:27:06;;;;;;;17.73;3.30;;;33.60;99.90;;;;;;5012415;28;20026;-71
2022/09/09 10:29:53;;;;;;;13.23;3.20;;;33.80;99.90;;;;;;5015922;28;20506;-71
2022/09/09 10:32:38;;;;;;;14.30;2.97;;;33.70;99.90;;;;;;5030981;28;20044;-71
2022/09/09 10:35:43;;;;;;;14.63;3.10;;;33.60;99.90;;;;;;5032669;28;20108;-71
2022/09/09 10:38:16;;;;;;;13.38;2.95;;;33.70;99.90;;;;;;5032820;28;20025;-71
2022/09/09 10:41:06;;;;;;;12.13;2.83;;;33.50;99.90;;;;;;5032474;28;20037;-71
2022/09/09 10:43:41;;;;;;;16.05;3.03;;;33.60;99.90;;;;;;5021471;28;20041;-71
2022/09/09 10:46:27;;;;;;;14.57;3.10;;;33.70;99.90;;;;;;5032532;28;20034;-71
2022/09/09 10:49:15;;;;;;;14.88;2.88;;;33.80;99.90;;;;;;5031749;28;20479;-71
2022/09/09 10:52:14;;;;;;;19.85;3.05;;;33.70;99.90;;;;;;5032145;28;20026;-71
2022/09/09 10:55:01;;;;;;;16.20;2.80;;;33.70;99.90;;;;;;5029689;28;20041;-71
2022/09/09 10:57:40;;;;;;;14.48;3.05;;;33.70;99.90;;;;;;5030297;28;20034;-71
2022/09/09 11:00:16;;;;;;;15.65;3.33;;;33.80;99.90;;;;;;5032226;28;20087;-71
2022/09/09 11:02:42;;;;;;;17.00;3.42;;;33.80;99.90;;;;;;5032336;28;20030;-71
2022/09/09 11:05:18;;;;;;;14.80;2.70;;;33.90;99.90;;;;;;5031764;28;20049;-71
2022/09/09 11:07:56;;;;;;;18.90;3.30;;;34.00;99.90;;;;;;5030391;28;20029;-71
2022/09/09 11:10:43;;;;;;;17.83;3.20;;;33.50;99.90;;;;;;5031856;28;20056;-71
2022/09/09 11:13:22;;;;;;;15.27;2.95;;;33.50;99.90;;;;;;5031919;28;20037;-71
2022/09/09 11:15:56;;;;;;;14.90;3.53;;;33.60;99.90;;;;;;5031847;28;20330;-71
2022/09/09 11:18:23;;;;;;;20.30;3.78;;;33.70;99.90;;;;;;5031983;28;20034;-71
2022/09/09 11:20:58;;;;;;;17.05;3.70;;;33.70;99.90;;;;;;5031415;28;20516;-71
2022/09/09 11:23:48;;;;;;;16.73;3.60;;;33.80;99.90;;;;;;5032047;28;20026;-71
2022/09/09 11:26:25;;;;;;;13.15;3.45;;;33.80;99.90;;;;;;5031145;28;20059;-71
2022/09/09 11:29:09;;;;;;;18.20;3.35;;;33.90;99.90;;;;;;5031708;28;20030;-71
2022/09/09 11:31:59;;;;;;;16.90;3.50;;;34.00;99.90;;;;;;5031774;28;20033;-72
2022/09/09 11:34:38;;;;;;;27.48;3.63;;;34.10;99.90;;;;;;5031946;28;20026;-72
2022/09/09 11:37:13;;;;;;;15.27;2.80;;;34.00;99.90;;;;;;5029986;28;20041;-71
2022/09/09 11:40:07;;;;;;;15.90;3.13;;;33.90;99.90;;;;;;5031829;28;20021;-71
2022/09/09 11:42:33;;;;;;;21.85;3.35;;;34.00;99.90;;;;;;5031515;28;20026;-71
2022/09/09 11:45:11;;;;;;;17.30;3.63;;;34.10;99.90;;;;;;5031789;28;20030;-71
2022/09/09 11:47:37;;;;;;;13.00;2.95;;;34.10;99.90;;;;;;5031911;28;20036;-71
2022/09/09 11:50:15;;;;;;;14.65;3.30;;;34.20;99.90;;;;;;5031975;28;20018;-71
2022/09/09 11:52:48;;;;;;;22.05;4.03;;;33.80;99.90;;;;;;5031386;28;20370;-71
2022/09/09 11:55:34;;;;;;;19.08;3.72;;;33.90;99.90;;;;;;5031628;28;20520;-71
2022/09/09 11:58:06;;;;;;;16.23;3.17;;;33.90;99.90;;;;;;5031723;28;20049;-71
2022/09/09 12:00:44;;;;;;;21.70;3.60;;;34.00;99.90;;;;;;5031168;28;20030;-71
2022/09/09 12:03:45;;;;;;;18.35;3.70;;;34.20;99.90;;;;;;5030912;28;20128;-71
2022/09/09 12:06:17;;;;;;;12.75;3.40;;;34.00;99.90;;;;;;5029900;28;20029;-70
2022/09/09 12:08:46;;;;;;;16.75;3.95;;;34.30;99.90;;;;;;5033305;28;20052;-71
2022/09/09 12:11:12;;;;;;;14.48;3.60;;;34.30;99.90;;;;;;5035026;28;20030;-71
2022/09/09 12:13:38;;;;;;;21.30;4.07;;;34.20;99.90;;;;;;5034866;28;20474;-70
2022/09/09 12:16:05;;;;;;;16.10;3.65;;;34.10;99.90;;;;;;5034877;28;20025;-69
2022/09/09 12:18:44;;;;;;;11.77;3.60;;;34.20;99.90;;;;;;5034777;28;20064;-69
2022/09/09 12:21:44;;;;;;;20.88;4.03;;;34.20;99.90;;;;;;5034809;28;20040;-70
2022/09/09 12:24:14;;;;;;;43.92;5.35;;;34.20;99.90;;;;;;5035004;28;20084;-70
2022/09/09 12:26:44;;;;;;;13.27;3.95;;;34.00;99.90;;;;;;5034540;28;20125;-70
2022/09/09 12:29:35;;;;;;;16.42;4.20;;;33.80;99.90;;;;;;5033730;28;20052;-71
2022/09/09 12:32:10;;;;;;;11.00;3.40;;;33.90;99.90;;;;;;5034414;28;20120;-69
2022/09/09 12:34:54;;;;;;;15.43;4.10;;;33.90;99.90;;;;;;5034835;28;20021;-70
2022/09/09 12:37:42;;;;;;;14.43;4.33;;;34.00;99.90;;;;;;5034807;28;20039;-70
2022/09/09 12:40:24;;;;;;;13.15;4.15;;;34.10;99.90;;;;;;5034750;28;20029;-70
2022/09/09 12:42:50;;;;;;;12.68;4.18;;;34.00;99.90;;;;;;5034584;28;20394;-69
2022/09/09 12:45:20;;;;;;;18.30;4.80;;;33.70;99.90;;;;;;5034521;28;20037;-70
2022/09/09 12:47:52;;;;;;;16.80;4.47;;;33.80;99.90;;;;;;5032960;28;20034;-72
2022/09/09 12:50:27;;;;;;;12.82;4.10;;;33.80;99.90;;;;;;5033926;28;20061;-72
2022/09/09 12:53:00;;;;;;;22.10;4.60;;;33.90;99.90;;;;;;5034714;28;20037;-69
2022/09/09 12:55:33;;;;;;;15.40;4.75;;;33.90;99.90;;;;;;5034742;28;20025;-69
2022/09/09 12:58:05;;;;;;;14.23;4.00;;;33.90;99.90;;;;;;5034480;28;20025;-68
2022/09/09 13:00:32;;;;;;;12.93;4.15;;;33.70;99.90;;;;;;5032683;28;20123;-71
2022/09/09 13:03:00;;;;;;;14.10;4.38;;;33.80;99.90;;;;;;5033835;28;20109;-71
2022/09/09 13:05:35;;;;;;;11.05;4.18;;;33.90;99.90;;;;;;5033893;28;20087;-69
2022/09/09 13:08:04;;;;;;;19.75;4.57;;;33.90;99.90;;;;;;5034053;28;20108;-71
2022/09/09 13:10:33;;;;;;;14.82;4.57;;;33.60;99.90;;;;;;5033794;28;20028;-69
2022/09/09 13:12:59;;;;;;;13.43;4.32;;;33.60;99.90;;;;;;5032377;28;20021;-71
2022/09/09 13:15:28;;;;;;;12.68;4.30;;;33.50;99.90;;;;;;5033338;28;20059;-71
2022/09/09 13:18:02;;;;;;;9.10;3.80;;;33.50;99.90;;;;;;5033663;28;20022;-70